Nome, AK (99762)

7:10 AM AKDT on July 29, 2016 (GMT -0800)
Banner Creek | | Change Station
Active Advisory: Areal Flood Watch

Elev 75 ft 64.64 °N, 165.28 °W | Updated 1 hour ago

Rain
Rain Mist
47.5 °F
Feels Like 48 °F
N
0.0
Wind Variable Wind from ENE
Gusts 0.0 mph

Today
High -- | Low -- °F
--% Chance of Precip.
Yesterday
High -- | Low -- °F
Precip. -- in
Pressure 29.79 in
Visibility 5.0 miles
Clouds Scattered Clouds 1100 ft
Mostly Cloudy 1900 ft
Overcast 3100 ft
Windchill 48 °F
Dew Point 47 °F
Humidity 98%
Rainfall 0.18 in
Snow Depth Not available.
5:57 AM 0:16 AM
Waning Crescent, 21% visible
SPECI PAOM 291504Z AUTO 04004KT 5SM RA BR SCT011 BKN019 OVC031 08/07 A2979 RMK AO2 P0001 T00780072 TSNO
Pressure 29.79 in
Visibility 5.0 miles
Clouds Scattered Clouds 1100 ft
Mostly Cloudy 1900 ft
Overcast 3100 ft
Windchill 48 °F
Dew Point 47 °F
Humidity 98%
Rainfall 0.18 in
Snow Depth Not available.
5:57 AM 0:16 AM
Waning Crescent, 21% visible
SPECI PAOM 291504Z AUTO 04004KT 5SM RA BR SCT011 BKN019 OVC031 08/07 A2979 RMK AO2 P0001 T00780072 TSNO

10-Day Weather Forecast

Almanac

Astronomy

Jul. 29, 2016 Rise Set
Actual Time
Civil Twilight
Nautical Twilight
Astronomical Twilight
Moon
Length of Visible Light
Length of Day
Tomorrow will be .
, % of the Moon is Illuminated

Today's Extremes

State Highs State Lows

Community

WunderPhotos

Upload Photos

1,928,345 photos uploaded!

WunderBlog® & News

Nearby

Air Quality

  Air Quality AQ Index Pollutant
Not available.

Snow Depth

Station Depth Elevation

Earthquake Activity

City Distance Mag. Time & Date
Minimum magnitude displayed is 2.5.

Coastal Water Temperatures

Place Temperature

Stations

Nearby Weather Stations

Station Location Temp. Windchill Dew Point Humidity Wind Precip. Elev Updated Type
                   

Watches & Warnings

Areal Flood Watch
Issued: 1:08 PM AKDT Jul. 28, 2016 – National Weather Service

... Flood Watch remains in effect from Friday afternoon through
Saturday evening...

The Flood Watch continues for

* the southern Seward Peninsula coast.

* From Friday afternoon through Saturday evening

* heavy rainfall is forecast for the area beginning Friday
morning and extending through early Saturday morning. Forecast
rainfall amounts are between 1 and 2 inches with the
possibility of locally heavier amounts.

* Rapid rises will occur on the small streams and rivers
draining the kigluaik and bendeleben mountains. Small streams
and rivers will rise to bankfull or overbank Friday afternoon
into Saturday morning followed by significant rises on the
larger rivers. Minor flooding in possible in low lying areas
in this region.

Precautionary/preparedness actions...

A Flood Watch means there is a potential for flooding based on
current forecasts.

You should monitor later forecasts and be alert for possible
flood warnings. Those living in areas prone to flooding should be
prepared to take action should flooding develop.